createdAt,value
2018-06-30T00:00:55.649Z,19.50
2018-06-30T00:03:28.245Z,19.50
2018-06-30T00:05:56.448Z,19.50
2018-06-30T00:08:24.627Z,19.50
2018-06-30T00:10:52.846Z,19.50
2018-06-30T00:13:21.025Z,19.50
2018-06-30T00:15:49.205Z,19.40
2018-06-30T00:18:17.397Z,19.30
2018-06-30T00:20:45.578Z,19.20
2018-06-30T00:23:13.729Z,19.10
2018-06-30T00:25:41.932Z,19.00
2018-06-30T00:28:10.112Z,19.00
2018-06-30T00:30:38.318Z,19.00
2018-06-30T00:33:06.523Z,18.90
2018-06-30T00:35:34.707Z,18.80
2018-06-30T00:38:02.884Z,18.80
2018-06-30T00:40:31.052Z,18.80
2018-06-30T00:45:27.166Z,18.90
2018-06-30T00:47:55.391Z,18.90
2018-06-30T00:50:23.575Z,18.80
2018-06-30T00:52:51.730Z,18.90
2018-06-30T00:55:20.266Z,18.80
2018-06-30T00:57:48.480Z,18.70
2018-06-30T01:00:16.667Z,18.70
2018-06-30T01:02:44.873Z,18.70
2018-06-30T01:05:13.049Z,18.70
2018-06-30T01:07:41.244Z,18.70
2018-06-30T01:10:09.417Z,18.60
2018-06-30T01:12:37.585Z,18.60
2018-06-30T01:15:05.748Z,18.60
2018-06-30T01:17:34.812Z,18.60
2018-06-30T01:20:04.444Z,18.50
2018-06-30T01:22:32.630Z,18.50
2018-06-30T01:25:00.786Z,18.50
2018-06-30T01:27:28.945Z,18.40
2018-06-30T01:29:57.138Z,18.40
2018-06-30T01:32:25.352Z,18.40
2018-06-30T01:34:53.594Z,18.30
2018-06-30T01:37:21.856Z,18.20
2018-06-30T01:39:50.028Z,18.20
2018-06-30T01:42:18.197Z,18.20
2018-06-30T01:44:46.421Z,18.10
2018-06-30T01:47:14.672Z,18.10
2018-06-30T01:49:42.852Z,18.10
2018-06-30T01:52:11.039Z,18.20
2018-06-30T01:54:39.264Z,18.10
2018-06-30T01:57:07.448Z,18.00
2018-06-30T01:59:35.657Z,17.90
2018-06-30T02:02:03.883Z,17.90
2018-06-30T02:04:32.057Z,18.00
2018-06-30T02:07:00.229Z,17.90
2018-06-30T02:09:28.416Z,17.90
2018-06-30T02:11:56.597Z,17.90
2018-06-30T02:14:24.752Z,17.90
2018-06-30T02:16:52.943Z,17.90
2018-06-30T02:19:21.103Z,17.90
2018-06-30T02:21:49.263Z,17.80
2018-06-30T02:24:17.491Z,17.80
2018-06-30T02:26:45.689Z,17.70
2018-06-30T02:29:13.868Z,17.60
2018-06-30T02:31:42.049Z,17.60
2018-06-30T02:34:10.257Z,17.60
2018-06-30T02:36:38.428Z,17.70
2018-06-30T02:39:07.448Z,17.60
2018-06-30T02:41:35.752Z,17.60
2018-06-30T02:44:03.941Z,17.60
2018-06-30T02:46:32.183Z,17.50
2018-06-30T02:49:00.351Z,17.40
2018-06-30T02:51:28.528Z,17.30
2018-06-30T02:53:56.715Z,17.20
2018-06-30T02:56:24.914Z,17.20
2018-06-30T02:58:53.145Z,17.20
2018-06-30T03:01:21.324Z,17.30
2018-06-30T03:03:49.510Z,17.30
2018-06-30T03:06:17.700Z,17.30
2018-06-30T03:08:45.884Z,17.30
2018-06-30T03:11:14.048Z,17.30
2018-06-30T03:13:42.268Z,17.30
2018-06-30T03:16:10.479Z,17.30
2018-06-30T03:18:38.677Z,17.30
2018-06-30T03:21:06.841Z,17.40
2018-06-30T03:23:35.048Z,17.30
2018-06-30T03:26:03.244Z,17.30
2018-06-30T03:28:31.411Z,17.30
2018-06-30T03:30:59.604Z,17.20
2018-06-30T03:33:27.802Z,17.30
2018-06-30T03:35:55.978Z,17.30
2018-06-30T03:38:24.189Z,17.30
2018-06-30T03:40:52.401Z,17.30
2018-06-30T03:43:20.594Z,17.30
2018-06-30T03:45:48.910Z,17.30
2018-06-30T03:48:17.110Z,17.20
2018-06-30T03:50:45.324Z,17.20
2018-06-30T03:53:13.523Z,17.20
2018-06-30T03:55:41.695Z,17.10
2018-06-30T03:58:09.882Z,17.20
2018-06-30T04:00:38.104Z,17.20
2018-06-30T04:03:06.259Z,17.10
2018-06-30T04:05:34.466Z,17.10
2018-06-30T04:08:02.682Z,17.20
2018-06-30T04:10:30.869Z,17.10
2018-06-30T04:12:59.075Z,17.10
2018-06-30T04:15:27.286Z,17.10
2018-06-30T04:17:55.457Z,17.20
2018-06-30T04:20:23.640Z,17.10
2018-06-30T04:22:51.851Z,17.00
2018-06-30T04:27:47.987Z,17.10
2018-06-30T04:30:16.186Z,17.10
2018-06-30T04:32:44.375Z,17.10
2018-06-30T04:35:12.582Z,17.10
2018-06-30T04:37:40.797Z,17.20
2018-06-30T04:40:09.000Z,17.20
2018-06-30T04:45:05.150Z,17.20
2018-06-30T04:47:33.321Z,17.30
2018-06-30T04:50:01.501Z,17.30
2018-06-30T04:52:29.764Z,17.30
2018-06-30T04:54:57.949Z,17.30
2018-06-30T04:57:26.155Z,17.30
2018-06-30T04:59:54.360Z,17.30
2018-06-30T05:02:22.541Z,17.30
2018-06-30T05:04:50.753Z,17.30
2018-06-30T05:07:18.967Z,17.40
2018-06-30T05:09:47.133Z,17.50
2018-06-30T05:12:15.287Z,17.50
2018-06-30T05:14:43.493Z,17.60
2018-06-30T05:17:11.681Z,17.70
2018-06-30T05:19:39.854Z,17.70
2018-06-30T05:22:08.052Z,17.80
2018-06-30T05:24:36.272Z,17.80
2018-06-30T05:27:04.852Z,17.80
2018-06-30T05:29:33.044Z,17.90
2018-06-30T05:32:01.215Z,18.00
2018-06-30T05:34:29.483Z,18.00
2018-06-30T05:36:57.845Z,18.00
2018-06-30T05:39:26.053Z,18.00
2018-06-30T05:41:54.231Z,18.10
2018-06-30T05:44:22.423Z,18.20
2018-06-30T05:46:50.635Z,18.30
2018-06-30T05:49:18.864Z,18.40
2018-06-30T05:51:47.029Z,18.40
2018-06-30T05:54:15.273Z,18.40
2018-06-30T05:56:43.462Z,18.50
2018-06-30T05:59:11.639Z,18.60
2018-06-30T06:01:39.923Z,18.60
2018-06-30T06:04:08.097Z,18.80
2018-06-30T06:06:36.261Z,18.80
2018-06-30T06:09:07.323Z,18.90
2018-06-30T06:11:35.622Z,19.00
2018-06-30T06:14:04.030Z,19.10
2018-06-30T06:16:32.293Z,19.20
2018-06-30T06:19:00.473Z,19.20
2018-06-30T06:21:28.695Z,19.40
2018-06-30T06:23:56.922Z,19.40
2018-06-30T06:26:25.099Z,19.60
2018-06-30T06:28:53.294Z,19.60
2018-06-30T06:31:21.489Z,19.70
2018-06-30T06:33:49.666Z,19.90
2018-06-30T06:36:17.844Z,20.00
2018-06-30T06:38:46.793Z,20.10
2018-06-30T06:41:14.999Z,20.20
2018-06-30T06:43:43.236Z,20.30
2018-06-30T06:46:11.391Z,20.40
2018-06-30T06:48:39.637Z,20.60
2018-06-30T06:51:07.865Z,20.70
2018-06-30T06:53:35.952Z,20.80
2018-06-30T06:56:04.121Z,20.90
2018-06-30T06:58:32.245Z,21.10
2018-06-30T07:01:00.368Z,21.20
2018-06-30T07:03:28.538Z,21.30
2018-06-30T07:05:56.673Z,21.50
2018-06-30T07:08:24.821Z,21.60
2018-06-30T07:10:52.982Z,21.70
2018-06-30T07:13:21.115Z,21.80
2018-06-30T07:15:49.483Z,21.90
2018-06-30T07:18:17.612Z,22.00
2018-06-30T07:20:45.776Z,22.10
2018-06-30T07:23:13.905Z,22.30
2018-06-30T07:25:42.041Z,22.40
2018-06-30T07:28:10.360Z,22.50
2018-06-30T07:30:39.019Z,22.60
2018-06-30T07:33:07.313Z,22.70
2018-06-30T07:35:35.441Z,22.80
2018-06-30T07:38:03.648Z,22.90
2018-06-30T07:40:32.197Z,23.00
2018-06-30T07:43:00.452Z,23.20
2018-06-30T07:45:28.740Z,23.30
2018-06-30T07:47:56.956Z,23.40
2018-06-30T07:50:25.167Z,23.60
2018-06-30T07:52:53.958Z,23.80
2018-06-30T07:55:22.129Z,24.80
2018-06-30T07:57:50.310Z,28.60
2018-06-30T08:00:18.488Z,31.50
2018-06-30T08:02:46.649Z,33.80
2018-06-30T08:05:14.799Z,35.80
2018-06-30T08:07:43.014Z,37.90
2018-06-30T08:10:11.202Z,38.90
2018-06-30T08:12:39.378Z,39.30
2018-06-30T08:15:07.569Z,39.90
2018-06-30T08:17:35.742Z,39.80
2018-06-30T08:20:04.116Z,40.10
2018-06-30T08:22:32.299Z,40.20
2018-06-30T08:25:00.481Z,41.30
2018-06-30T08:27:28.677Z,41.40
2018-06-30T08:29:56.854Z,41.00
2018-06-30T08:32:25.018Z,40.90
2018-06-30T08:34:53.227Z,41.30
2018-06-30T08:37:21.476Z,40.70
2018-06-30T08:39:49.701Z,40.80
2018-06-30T08:42:17.883Z,41.70
2018-06-30T08:44:46.073Z,41.60
2018-06-30T08:47:14.271Z,41.50
2018-06-30T08:49:42.471Z,41.40
2018-06-30T08:52:10.672Z,41.30
2018-06-30T08:54:38.851Z,40.60
2018-06-30T08:57:07.043Z,40.60
2018-06-30T08:59:35.223Z,40.00
2018-06-30T09:02:03.485Z,40.20
2018-06-30T09:04:31.650Z,40.50
2018-06-30T09:06:59.827Z,39.60
2018-06-30T09:09:32.284Z,39.30
2018-06-30T09:12:00.500Z,38.90
2018-06-30T09:14:33.620Z,38.90
2018-06-30T09:17:01.841Z,38.80
2018-06-30T09:19:30.031Z,39.20
2018-06-30T09:21:58.217Z,38.80
2018-06-30T09:24:26.481Z,38.80
2018-06-30T09:26:54.829Z,39.20
2018-06-30T09:29:23.053Z,39.40
2018-06-30T09:31:51.233Z,39.50
2018-06-30T09:34:19.405Z,39.20
2018-06-30T09:36:47.613Z,38.60
2018-06-30T09:39:15.811Z,39.20
2018-06-30T09:41:43.989Z,38.80
2018-06-30T09:44:12.140Z,38.80
2018-06-30T09:46:40.272Z,38.10
2018-06-30T09:49:08.400Z,36.60
2018-06-30T09:51:36.562Z,35.20
2018-06-30T09:54:04.685Z,33.50
2018-06-30T09:56:32.814Z,32.30
2018-06-30T09:59:00.939Z,31.30
2018-06-30T10:01:29.070Z,30.60
2018-06-30T10:03:57.216Z,30.00
2018-06-30T10:06:25.384Z,29.50
2018-06-30T10:08:53.519Z,29.10
2018-06-30T10:11:21.656Z,28.80
2018-06-30T10:13:49.841Z,28.60
2018-06-30T10:16:17.968Z,28.50
2018-06-30T10:18:46.099Z,28.30
2018-06-30T10:21:16.079Z,28.20
2018-06-30T10:23:44.206Z,27.70
2018-06-30T10:26:12.421Z,27.70
2018-06-30T10:28:41.320Z,27.80
2018-06-30T10:31:09.540Z,28.00
2018-06-30T10:33:37.676Z,28.10
2018-06-30T10:36:05.886Z,28.20
2018-06-30T10:38:34.059Z,28.30
2018-06-30T10:41:02.286Z,28.30
2018-06-30T10:43:30.459Z,28.40
2018-06-30T10:45:58.573Z,28.30
2018-06-30T10:48:26.718Z,28.30
2018-06-30T10:50:54.832Z,28.30
2018-06-30T10:53:24.094Z,28.00
2018-06-30T10:55:52.325Z,28.10
2018-06-30T10:58:20.535Z,28.20
2018-06-30T11:00:48.743Z,28.30
2018-06-30T11:03:16.922Z,28.50
2018-06-30T11:05:45.153Z,28.60
2018-06-30T11:08:13.317Z,28.70
2018-06-30T11:10:41.533Z,28.70
2018-06-30T11:13:09.712Z,28.80
2018-06-30T11:18:06.071Z,29.10
2018-06-30T11:20:34.263Z,29.20
2018-06-30T11:23:02.628Z,29.10
2018-06-30T11:25:30.837Z,29.00
2018-06-30T11:27:59.057Z,29.20
2018-06-30T11:30:27.264Z,29.30
2018-06-30T11:32:55.560Z,29.50
2018-06-30T11:35:23.744Z,29.60
2018-06-30T11:37:51.935Z,29.70
2018-06-30T11:40:20.190Z,29.80
2018-06-30T11:42:48.359Z,29.80
2018-06-30T11:45:16.582Z,29.80
2018-06-30T11:47:44.759Z,29.60
2018-06-30T11:50:12.976Z,29.30
2018-06-30T11:52:45.109Z,29.30
2018-06-30T11:55:14.160Z,29.50
2018-06-30T11:57:42.387Z,29.50
2018-06-30T12:00:10.739Z,29.40
2018-06-30T12:02:38.948Z,29.30
2018-06-30T12:05:07.832Z,29.30
2018-06-30T12:07:36.154Z,29.50
2018-06-30T12:10:04.790Z,29.50
2018-06-30T12:12:32.987Z,29.60
2018-06-30T12:15:01.221Z,29.70
2018-06-30T12:17:29.381Z,29.80
2018-06-30T12:19:57.576Z,29.90
2018-06-30T12:22:25.806Z,30.00
2018-06-30T12:24:54.009Z,30.10
2018-06-30T12:27:22.243Z,30.00
2018-06-30T12:29:50.621Z,30.10
2018-06-30T12:32:18.812Z,30.20
2018-06-30T12:34:47.011Z,30.30
2018-06-30T12:37:15.225Z,30.30
2018-06-30T12:39:43.423Z,30.30
2018-06-30T12:42:11.580Z,30.40
2018-06-30T12:44:39.754Z,30.50
2018-06-30T12:47:07.884Z,30.50
2018-06-30T12:49:36.040Z,30.40
2018-06-30T12:52:04.205Z,30.30
2018-06-30T12:54:32.487Z,30.10
2018-06-30T12:57:00.460Z,30.00
2018-06-30T12:59:28.617Z,29.80
2018-06-30T13:01:56.780Z,29.80
2018-06-30T13:04:24.908Z,29.80
2018-06-30T13:06:53.079Z,29.70
2018-06-30T13:09:21.216Z,29.70
2018-06-30T13:11:49.341Z,29.50
2018-06-30T13:14:17.468Z,29.50
2018-06-30T13:16:45.681Z,29.60
2018-06-30T13:19:13.796Z,29.50
2018-06-30T13:21:41.938Z,29.30
2018-06-30T13:24:10.071Z,29.30
2018-06-30T13:26:38.205Z,29.40
2018-06-30T13:29:06.696Z,29.30
2018-06-30T13:31:34.841Z,29.20
2018-06-30T13:34:05.058Z,29.10
2018-06-30T13:36:33.254Z,29.20
2018-06-30T13:39:01.602Z,29.50
2018-06-30T13:41:29.781Z,29.80
2018-06-30T13:43:57.921Z,30.00
2018-06-30T13:46:26.099Z,29.90
2018-06-30T13:48:54.174Z,29.70
2018-06-30T13:51:22.333Z,29.50
2018-06-30T13:53:50.456Z,29.30
2018-06-30T13:56:18.576Z,29.00
2018-06-30T13:58:46.773Z,28.90
2018-06-30T14:01:14.906Z,28.70
2018-06-30T14:03:43.040Z,28.70
2018-06-30T14:06:11.180Z,28.50
2018-06-30T14:08:39.312Z,28.50
2018-06-30T14:11:07.436Z,28.50
2018-06-30T14:13:35.579Z,28.60
2018-06-30T14:16:03.699Z,28.50
2018-06-30T14:18:31.889Z,28.40
2018-06-30T14:20:59.977Z,28.30
2018-06-30T14:23:28.138Z,27.80
2018-06-30T14:25:56.232Z,28.00
2018-06-30T14:28:24.379Z,28.10
2018-06-30T14:30:54.057Z,28.30
2018-06-30T14:33:22.261Z,28.30
2018-06-30T14:35:50.432Z,28.60
2018-06-30T14:38:18.624Z,28.80
2018-06-30T14:40:46.825Z,29.00
2018-06-30T14:43:15.073Z,29.10
2018-06-30T14:45:43.256Z,29.20
2018-06-30T14:48:11.466Z,29.20
2018-06-30T14:50:39.684Z,29.20
2018-06-30T14:53:07.963Z,29.20
2018-06-30T14:55:36.224Z,29.20
2018-06-30T14:58:04.532Z,29.30
2018-06-30T15:00:32.751Z,29.40
2018-06-30T15:03:00.941Z,29.50
2018-06-30T15:05:29.141Z,29.30
2018-06-30T15:07:57.433Z,29.30
2018-06-30T15:10:25.593Z,29.30
2018-06-30T15:12:53.790Z,29.30
2018-06-30T15:15:21.965Z,29.30
2018-06-30T15:17:50.124Z,29.30
2018-06-30T15:20:18.331Z,29.30
2018-06-30T15:22:46.492Z,29.30
2018-06-30T15:25:14.684Z,29.30
2018-06-30T15:27:42.873Z,29.30
2018-06-30T15:30:11.097Z,29.30
2018-06-30T15:32:39.239Z,29.30
2018-06-30T15:35:07.455Z,29.20
2018-06-30T15:37:35.620Z,29.10
2018-06-30T15:40:04.554Z,29.10
2018-06-30T15:42:32.769Z,29.10
2018-06-30T15:45:00.957Z,29.00
2018-06-30T15:47:29.136Z,28.90
2018-06-30T15:49:57.332Z,29.00
2018-06-30T15:52:25.514Z,29.00
2018-06-30T15:54:53.697Z,29.00
2018-06-30T15:57:21.896Z,29.10
2018-06-30T15:59:50.072Z,29.00
2018-06-30T16:02:18.265Z,28.90
2018-06-30T16:04:46.529Z,28.90
2018-06-30T16:07:14.738Z,28.80
2018-06-30T16:09:42.943Z,28.70
2018-06-30T16:12:11.125Z,28.60
2018-06-30T16:14:39.305Z,28.60
2018-06-30T16:17:07.506Z,28.50
2018-06-30T16:19:35.714Z,28.50
2018-06-30T16:22:03.883Z,28.50
2018-06-30T16:24:32.082Z,28.40
2018-06-30T16:27:00.273Z,28.30
2018-06-30T16:29:28.449Z,28.30
2018-06-30T16:31:56.636Z,28.10
2018-06-30T16:34:24.822Z,28.10
2018-06-30T16:36:53.017Z,28.00
2018-06-30T16:41:49.166Z,27.90
2018-06-30T16:44:17.326Z,27.90
2018-06-30T16:46:45.517Z,27.80
2018-06-30T16:51:41.613Z,27.70
2018-06-30T16:54:09.760Z,27.70
2018-06-30T16:56:37.939Z,27.70
2018-06-30T16:59:06.134Z,27.70
2018-06-30T17:01:34.313Z,27.60
2018-06-30T17:04:02.542Z,27.50
2018-06-30T17:06:30.743Z,27.50
2018-06-30T17:08:58.920Z,27.50
2018-06-30T17:11:27.162Z,27.40
2018-06-30T17:13:55.372Z,27.40
2018-06-30T17:16:23.543Z,27.30
2018-06-30T17:18:51.742Z,27.20
2018-06-30T17:21:19.948Z,27.20
2018-06-30T17:23:48.169Z,27.10
2018-06-30T17:26:16.369Z,27.00
2018-06-30T17:28:45.070Z,26.90
2018-06-30T17:31:13.229Z,26.80
2018-06-30T17:33:41.414Z,26.80
2018-06-30T17:36:09.599Z,26.60
2018-06-30T17:38:37.776Z,26.60
2018-06-30T17:41:06.201Z,26.60
2018-06-30T17:43:34.379Z,26.60
2018-06-30T17:46:03.641Z,26.50
2018-06-30T17:48:31.862Z,26.50
2018-06-30T17:51:00.019Z,26.40
2018-06-30T17:53:28.233Z,26.30
2018-06-30T17:55:56.387Z,26.20
2018-06-30T17:58:25.040Z,26.20
2018-06-30T18:00:53.188Z,26.10
2018-06-30T18:03:21.430Z,26.10
2018-06-30T18:05:49.616Z,26.10
2018-06-30T18:08:18.658Z,26.00
2018-06-30T18:10:46.843Z,26.00
2018-06-30T18:13:15.034Z,25.90
2018-06-30T18:15:43.200Z,25.90
2018-06-30T18:18:11.421Z,25.80
2018-06-30T18:20:39.584Z,25.70
2018-06-30T18:23:07.749Z,25.70
2018-06-30T18:25:35.936Z,25.70
2018-06-30T18:28:04.117Z,25.60
2018-06-30T18:30:32.317Z,25.50
2018-06-30T18:33:00.628Z,25.40
2018-06-30T18:35:28.793Z,25.40
2018-06-30T18:37:56.952Z,25.30
2018-06-30T18:40:25.153Z,25.20
2018-06-30T18:42:53.330Z,25.20
2018-06-30T18:45:21.500Z,25.10
2018-06-30T18:47:49.693Z,25.00
2018-06-30T18:50:17.875Z,24.90
2018-06-30T18:52:46.070Z,24.90
2018-06-30T18:55:14.254Z,24.70
2018-06-30T18:57:42.428Z,24.70
2018-06-30T19:00:10.647Z,24.60
2018-06-30T19:02:38.873Z,24.50
2018-06-30T19:05:07.380Z,24.50
2018-06-30T19:07:35.620Z,24.30
2018-06-30T19:10:03.843Z,24.20
2018-06-30T19:12:31.973Z,24.10
2018-06-30T19:15:00.168Z,24.00
2018-06-30T19:17:28.356Z,24.00
2018-06-30T19:19:56.557Z,23.90
2018-06-30T19:22:24.742Z,23.80
2018-06-30T19:24:52.952Z,23.70
2018-06-30T19:27:21.148Z,23.60
2018-06-30T19:29:49.319Z,23.50
2018-06-30T19:32:17.633Z,23.40
2018-06-30T19:34:45.808Z,23.30
2018-06-30T19:37:13.982Z,23.20
2018-06-30T19:39:42.201Z,23.20
2018-06-30T19:42:10.408Z,23.10
2018-06-30T19:44:38.564Z,23.00
2018-06-30T19:47:06.845Z,22.90
2018-06-30T19:49:35.031Z,22.80
2018-06-30T19:52:03.677Z,22.70
2018-06-30T19:54:31.941Z,22.60
2018-06-30T19:57:00.435Z,22.50
2018-06-30T19:59:28.619Z,22.40
2018-06-30T20:01:57.057Z,22.30
2018-06-30T20:04:25.244Z,22.30
2018-06-30T20:06:53.524Z,22.20
2018-06-30T20:09:21.694Z,22.10
2018-06-30T20:11:49.857Z,22.00
2018-06-30T20:14:18.050Z,22.00
2018-06-30T20:16:46.234Z,21.80
2018-06-30T20:19:14.416Z,21.70
2018-06-30T20:21:42.888Z,21.70
2018-06-30T20:24:11.079Z,21.60
2018-06-30T20:26:39.276Z,21.60
2018-06-30T20:29:07.447Z,21.50
2018-06-30T20:31:35.656Z,21.40
2018-06-30T20:34:03.823Z,21.40
2018-06-30T20:36:32.004Z,21.40
2018-06-30T20:39:00.196Z,21.30
2018-06-30T20:41:28.398Z,21.20
2018-06-30T20:43:56.593Z,21.10
2018-06-30T20:46:24.782Z,21.00
2018-06-30T20:48:52.969Z,20.90
2018-06-30T20:51:21.139Z,20.90
2018-06-30T20:53:49.332Z,20.80
2018-06-30T20:56:17.517Z,20.70
2018-06-30T20:58:45.684Z,20.60
2018-06-30T21:01:13.903Z,20.50
2018-06-30T21:03:42.078Z,20.40
2018-06-30T21:06:10.265Z,20.40
2018-06-30T21:08:38.448Z,20.30
2018-06-30T21:11:06.643Z,20.20
2018-06-30T21:13:34.998Z,20.20
2018-06-30T21:16:03.215Z,20.10
2018-06-30T21:18:31.397Z,20.00
2018-06-30T21:20:59.581Z,20.00
2018-06-30T21:23:28.091Z,20.00
2018-06-30T21:28:24.179Z,19.80
2018-06-30T21:30:52.390Z,19.60
2018-06-30T21:33:20.570Z,19.50
2018-06-30T21:35:48.903Z,19.40
2018-06-30T21:40:45.071Z,19.30
2018-06-30T21:43:13.230Z,19.30
2018-06-30T21:45:41.422Z,19.20
2018-06-30T21:48:09.758Z,19.10
2018-06-30T21:50:38.240Z,19.10
2018-06-30T21:53:06.531Z,19.00
2018-06-30T21:55:34.720Z,19.00
2018-06-30T21:58:02.952Z,18.90
2018-06-30T22:00:45.862Z,18.80
2018-06-30T22:03:14.043Z,18.80
2018-06-30T22:05:42.203Z,18.70
2018-06-30T22:08:10.429Z,18.70
2018-06-30T22:10:38.825Z,18.70
2018-06-30T22:13:06.965Z,18.60
2018-06-30T22:15:35.631Z,18.50
2018-06-30T22:18:03.814Z,18.40
2018-06-30T22:20:32.600Z,18.30
2018-06-30T22:23:00.770Z,18.30
2018-06-30T22:25:28.962Z,18.20
2018-06-30T22:27:57.212Z,18.20
2018-06-30T22:30:25.411Z,18.20
2018-06-30T22:32:53.601Z,18.20
2018-06-30T22:35:21.779Z,18.10
2018-06-30T22:37:49.971Z,18.00
2018-06-30T22:40:19.119Z,17.90
2018-06-30T22:42:47.494Z,17.80
2018-06-30T22:45:16.406Z,17.80
2018-06-30T22:47:45.197Z,17.80
2018-06-30T22:50:14.510Z,17.70
2018-06-30T22:52:42.706Z,17.60
2018-06-30T22:55:10.914Z,17.60
2018-06-30T22:57:39.097Z,17.40
2018-06-30T23:00:09.314Z,17.30
2018-06-30T23:02:37.619Z,17.40
2018-06-30T23:05:05.836Z,17.40
2018-06-30T23:07:34.084Z,17.40
2018-06-30T23:10:02.302Z,17.30
2018-06-30T23:12:30.474Z,17.30
2018-06-30T23:17:26.791Z,17.20
2018-06-30T23:19:54.954Z,17.10
2018-06-30T23:23:05.873Z,17.00
2018-06-30T23:25:34.525Z,17.00
2018-06-30T23:28:02.981Z,17.00
2018-06-30T23:30:31.655Z,16.90
2018-06-30T23:32:59.886Z,16.90
2018-06-30T23:35:29.091Z,16.90
2018-06-30T23:37:58.304Z,16.80
2018-06-30T23:40:26.497Z,16.70
2018-06-30T23:42:54.740Z,16.60
2018-06-30T23:45:23.356Z,16.50
2018-06-30T23:47:52.347Z,16.40
2018-06-30T23:50:20.932Z,16.40
2018-06-30T23:52:49.143Z,16.30
2018-06-30T23:55:17.379Z,16.30
2018-06-30T23:57:45.554Z,16.20
